createdAt,value
2023-05-23T05:06:08.256Z,14.78
2023-05-23T05:09:18.423Z,14.94
2023-05-23T05:12:27.071Z,15.05
2023-05-23T05:15:33.075Z,15.14
2023-05-23T05:18:40.031Z,15.20
2023-05-23T05:21:48.373Z,15.32
2023-05-23T05:24:55.447Z,15.45
2023-05-23T05:28:02.095Z,15.57
2023-05-23T05:31:09.321Z,15.66
2023-05-23T05:34:16.399Z,15.80
2023-05-23T05:37:23.677Z,16.00
2023-05-23T05:40:30.799Z,16.12
2023-05-23T05:43:37.730Z,16.21
2023-05-23T05:47:02.535Z,16.36
2023-05-23T05:50:09.437Z,16.51
2023-05-23T05:53:16.548Z,16.63
2023-05-23T05:56:23.446Z,16.75
2023-05-23T05:59:32.421Z,16.85
2023-05-23T06:02:39.985Z,16.97
2023-05-23T06:05:47.190Z,17.08
2023-05-23T06:08:55.354Z,17.21
2023-05-23T06:12:03.429Z,17.37
2023-05-23T06:15:24.631Z,17.54
2023-05-23T06:18:32.781Z,17.72
2023-05-23T06:21:40.194Z,17.90
2023-05-23T06:24:45.689Z,18.06
2023-05-23T06:27:52.816Z,18.22
2023-05-23T06:30:59.717Z,18.34
2023-05-23T06:34:06.724Z,18.49
2023-05-23T06:37:15.996Z,18.64
2023-05-23T06:40:23.189Z,18.75
2023-05-23T06:43:30.986Z,18.84
2023-05-23T06:46:50.872Z,18.96
2023-05-23T06:49:57.731Z,19.05
2023-05-23T06:53:04.729Z,19.12
2023-05-23T06:56:12.006Z,19.22
2023-05-23T06:59:22.094Z,19.40
2023-05-23T07:02:29.429Z,19.53
2023-05-23T07:05:45.147Z,19.67
2023-05-23T07:09:14.063Z,19.83
2023-05-23T07:12:26.000Z,19.97
2023-05-23T07:15:32.918Z,20.13
2023-05-23T07:18:39.949Z,20.28
2023-05-23T07:21:46.998Z,20.44
2023-05-23T07:24:53.894Z,20.62
2023-05-23T07:28:00.887Z,20.81
2023-05-23T07:31:08.191Z,20.96
2023-05-23T07:33:58.614Z,21.03
2023-05-23T07:37:04.251Z,21.09
2023-05-23T07:40:11.704Z,21.15
2023-05-23T07:43:17.353Z,21.26
2023-05-23T07:46:24.238Z,21.42
2023-05-23T07:49:33.042Z,21.58
2023-05-23T07:52:40.008Z,21.76
2023-05-23T07:55:46.812Z,21.90
2023-05-23T07:58:54.106Z,22.03
2023-05-23T08:02:01.219Z,22.19
2023-05-23T08:05:08.303Z,22.32
2023-05-23T08:30:39.838Z,23.12
2023-05-23T08:33:46.990Z,23.17
2023-05-23T08:36:59.709Z,23.32
2023-05-23T08:40:07.034Z,23.54
2023-05-23T08:43:14.291Z,23.66
2023-05-23T08:46:23.325Z,23.87
2023-05-23T08:49:30.316Z,24.08
2023-05-23T08:52:37.559Z,24.33
2023-05-23T08:55:28.864Z,24.48
2023-05-23T08:58:36.830Z,24.55
2023-05-23T09:01:43.771Z,24.64
2023-05-23T09:04:55.487Z,24.64
2023-05-23T09:08:18.976Z,24.58
2023-05-23T09:11:22.017Z,24.58
2023-05-23T09:14:29.039Z,24.65
2023-05-23T09:17:36.394Z,24.66
2023-05-23T09:21:03.314Z,24.72
2023-05-23T09:24:11.553Z,24.81
2023-05-23T09:27:48.348Z,24.96
2023-05-23T09:31:09.081Z,25.01
2023-05-23T09:34:20.699Z,25.09
2023-05-23T09:37:36.830Z,25.18
2023-05-23T09:40:44.652Z,25.23
2023-05-23T09:43:52.009Z,25.27
2023-05-23T09:47:53.355Z,25.30
2023-05-23T09:50:26.570Z,25.44
2023-05-23T09:53:33.751Z,25.58
2023-05-23T09:56:52.429Z,25.69
2023-05-23T10:00:00.752Z,26.03
2023-05-23T10:03:21.924Z,26.42
2023-05-23T10:06:42.072Z,26.97
2023-05-23T10:09:48.105Z,27.49
2023-05-23T10:13:03.842Z,28.05
2023-05-23T10:16:15.623Z,28.57
2023-05-23T10:19:31.771Z,28.98
2023-05-23T10:22:39.093Z,29.47
2023-05-23T10:25:46.236Z,29.88
2023-05-23T10:28:55.547Z,30.36
2023-05-23T10:32:02.402Z,30.80
2023-05-23T10:35:15.223Z,31.23
2023-05-23T10:38:22.105Z,31.62
2023-05-23T10:41:31.794Z,31.88
2023-05-23T10:44:44.540Z,32.24
2023-05-23T10:47:51.635Z,32.55
2023-05-23T10:51:21.830Z,32.87
2023-05-23T10:54:45.093Z,33.34
2023-05-23T10:57:52.119Z,33.68
2023-05-23T11:00:52.006Z,33.98
2023-05-23T11:04:06.215Z,34.46
2023-05-23T11:07:13.194Z,34.85
2023-05-23T11:10:22.869Z,34.94
2023-05-23T11:13:30.010Z,35.19
2023-05-23T11:16:49.213Z,35.70
2023-05-23T11:19:56.415Z,36.20
2023-05-23T11:23:03.275Z,36.46
2023-05-23T11:26:09.428Z,36.82
2023-05-23T11:29:16.636Z,37.50
2023-05-23T11:32:29.640Z,37.99
2023-05-23T11:35:36.744Z,38.03
2023-05-23T11:38:43.873Z,37.65
2023-05-23T11:41:51.790Z,37.08
2023-05-23T11:44:58.908Z,36.65
2023-05-23T11:48:06.170Z,36.35
2023-05-23T11:51:13.661Z,36.85
2023-05-23T11:54:24.981Z,37.89
2023-05-23T11:57:32.255Z,38.76
2023-05-23T12:00:39.369Z,39.46
2023-05-23T12:03:47.016Z,40.25
2023-05-23T12:06:54.055Z,41.04
2023-05-23T12:10:05.542Z,41.79
2023-05-23T12:13:11.366Z,42.12
2023-05-23T12:16:16.809Z,42.07
2023-05-23T12:19:23.880Z,41.84
2023-05-23T12:22:30.895Z,41.89
2023-05-23T12:25:38.077Z,41.73
2023-05-23T12:28:54.179Z,41.40
2023-05-23T12:32:01.196Z,40.92
2023-05-23T12:34:57.458Z,40.50
2023-05-23T12:38:04.114Z,40.06
2023-05-23T12:41:32.642Z,39.05
2023-05-23T12:44:42.210Z,38.01
2023-05-23T12:48:16.335Z,37.06
2023-05-23T12:51:23.412Z,36.44
2023-05-23T12:54:35.157Z,35.72
2023-05-23T12:57:43.114Z,35.26
2023-05-23T13:00:54.717Z,35.03
2023-05-23T13:04:02.218Z,34.85
2023-05-23T13:07:14.565Z,34.51
2023-05-23T13:10:41.443Z,33.81
2023-05-23T13:13:56.298Z,33.06
2023-05-23T13:17:30.081Z,32.29
2023-05-23T13:20:47.400Z,31.18
2023-05-23T13:24:04.134Z,30.16
2023-05-23T13:27:15.288Z,29.16
2023-05-23T13:30:22.305Z,27.58
2023-05-23T13:33:29.425Z,26.24
2023-05-23T13:36:36.343Z,25.40
2023-05-23T13:39:43.428Z,24.85
2023-05-23T13:42:50.432Z,24.30
2023-05-23T13:45:57.989Z,23.81
2023-05-23T13:49:05.736Z,23.40
2023-05-23T13:52:32.757Z,23.00
2023-05-23T13:55:39.742Z,22.71
2023-05-23T13:58:49.093Z,22.37
2023-05-23T14:01:56.267Z,22.03
2023-05-23T14:05:03.770Z,21.69
2023-05-23T14:08:11.126Z,21.29
2023-05-23T14:11:18.583Z,20.92
2023-05-23T14:14:28.003Z,20.65
2023-05-23T14:17:37.652Z,20.47
2023-05-23T14:20:45.852Z,20.40
2023-05-23T14:23:54.888Z,20.49
2023-05-23T14:27:01.807Z,20.66
2023-05-23T14:30:09.549Z,20.79
2023-05-23T14:33:26.152Z,20.91
2023-05-23T14:36:33.370Z,21.04
2023-05-23T14:39:30.326Z,21.08
2023-05-23T14:42:29.661Z,21.13
2023-05-23T14:45:41.310Z,21.14
2023-05-23T14:49:08.665Z,21.26
2023-05-23T14:52:17.307Z,21.51
2023-05-23T14:55:24.473Z,22.30
2023-05-23T14:58:33.532Z,25.34
2023-05-23T15:01:41.209Z,28.37
2023-05-23T15:04:48.977Z,28.89
2023-05-23T15:08:16.898Z,27.83
2023-05-23T15:11:26.037Z,26.98
2023-05-23T15:14:35.099Z,26.11
2023-05-23T15:17:42.421Z,25.39
2023-05-23T15:20:50.487Z,24.83
2023-05-23T15:23:57.836Z,24.30
2023-05-23T15:27:19.466Z,23.78
2023-05-23T15:30:29.053Z,23.48
2023-05-23T15:33:55.770Z,23.26
2023-05-23T15:37:12.193Z,23.05
2023-05-23T15:40:27.228Z,22.85
2023-05-23T15:43:34.121Z,22.63
2023-05-23T15:46:39.953Z,22.52
2023-05-23T15:49:47.808Z,22.45
2023-05-23T15:52:50.396Z,22.61
2023-05-23T15:56:33.932Z,23.87
2023-05-23T15:59:42.763Z,26.02
2023-05-23T16:02:50.565Z,26.41
2023-05-23T16:05:51.256Z,27.17
2023-05-23T16:08:58.369Z,28.29
2023-05-23T16:12:06.619Z,29.58
2023-05-23T16:15:17.602Z,31.05
2023-05-23T16:18:24.201Z,32.15
2023-05-23T16:21:31.286Z,33.25
2023-05-23T16:24:38.057Z,33.99
2023-05-23T16:27:45.229Z,34.50
2023-05-23T16:30:51.137Z,34.64
2023-05-23T16:33:58.999Z,34.15
2023-05-23T16:37:06.884Z,34.20
2023-05-23T16:40:14.062Z,34.10
2023-05-23T16:43:21.181Z,33.68
2023-05-23T16:46:28.481Z,33.24
2023-05-23T16:49:35.786Z,33.05
2023-05-23T16:52:43.156Z,32.19
2023-05-23T16:55:50.428Z,30.50
2023-05-23T16:58:57.584Z,29.16
2023-05-23T17:02:04.572Z,28.01
2023-05-23T17:05:11.818Z,27.02
2023-05-23T17:08:20.060Z,26.20
2023-05-23T17:11:27.661Z,25.60
2023-05-23T17:14:34.659Z,24.96
2023-05-23T17:17:41.965Z,24.29
2023-05-23T17:20:49.478Z,23.70
2023-05-23T17:23:56.755Z,23.24
2023-05-23T17:30:35.455Z,22.47
2023-05-23T17:33:42.670Z,22.13
2023-05-23T17:36:50.350Z,21.80
2023-05-23T17:39:57.970Z,21.60
2023-05-23T17:43:05.683Z,21.44
2023-05-23T17:46:12.726Z,21.30
2023-05-23T17:49:19.461Z,21.18
2023-05-23T17:52:44.946Z,21.06
2023-05-23T17:55:51.839Z,20.95
2023-05-23T17:58:59.170Z,20.88
2023-05-23T18:01:56.540Z,20.82
2023-05-23T18:08:26.712Z,20.63
2023-05-23T18:11:34.657Z,20.53
2023-05-23T18:14:43.451Z,20.43
2023-05-23T18:18:10.886Z,20.31
2023-05-23T18:21:18.465Z,20.20
2023-05-23T18:24:26.651Z,20.10
2023-05-23T18:27:33.782Z,20.02
2023-05-23T18:30:40.938Z,19.93
2023-05-23T18:33:48.836Z,19.84
2023-05-23T18:37:17.621Z,19.74
2023-05-23T18:40:25.745Z,19.64
2023-05-23T18:43:41.656Z,19.60
2023-05-23T18:50:30.342Z,19.49
2023-05-23T18:53:57.631Z,19.46
2023-05-23T18:57:06.427Z,19.44
2023-05-23T19:00:13.683Z,19.42
2023-05-23T19:03:21.787Z,19.38
2023-05-23T19:06:33.609Z,19.34
2023-05-23T19:09:34.017Z,19.30
2023-05-23T19:12:41.365Z,19.27
2023-05-23T19:16:04.328Z,19.23
2023-05-23T19:19:11.662Z,19.16
2023-05-23T19:22:24.093Z,19.10
2023-05-23T19:25:37.951Z,19.04
2023-05-23T19:29:12.535Z,18.96
2023-05-23T19:32:40.310Z,18.87
2023-05-23T19:35:48.522Z,18.82
2023-05-23T19:38:56.724Z,18.81
2023-05-23T19:42:08.044Z,18.80
2023-05-23T19:45:57.259Z,18.74
2023-05-23T19:49:05.483Z,18.73
2023-05-23T19:52:14.555Z,18.73
2023-05-23T19:55:22.649Z,18.72
2023-05-23T19:58:54.182Z,18.70
2023-05-23T20:22:04.476Z,18.24
2023-05-23T20:25:11.687Z,18.21
2023-05-23T20:28:20.584Z,18.17
2023-05-23T20:31:37.015Z,18.13
2023-05-23T20:34:52.873Z,18.09
2023-05-23T20:38:02.167Z,18.06
2023-05-23T20:41:11.224Z,18.00
2023-05-23T20:44:18.896Z,17.96
2023-05-23T20:47:26.489Z,17.94
2023-05-23T20:50:33.594Z,17.93
2023-05-23T20:53:40.634Z,17.92
2023-05-23T20:57:08.188Z,17.89
2023-05-23T21:00:15.324Z,17.88
2023-05-23T21:03:25.334Z,17.86
2023-05-23T21:06:35.794Z,17.83
2023-05-23T21:09:46.489Z,17.79
2023-05-23T21:12:56.009Z,17.74
2023-05-23T21:16:06.778Z,17.72
2023-05-23T21:19:19.746Z,17.72
2023-05-23T21:22:37.446Z,17.71
2023-05-23T21:25:55.149Z,17.71
2023-05-23T21:29:02.875Z,17.71
2023-05-23T21:32:12.358Z,17.70
2023-05-23T21:35:20.835Z,17.68
2023-05-23T21:38:29.871Z,17.65
2023-05-23T21:41:43.254Z,17.62
2023-05-23T21:44:50.241Z,17.57
2023-05-23T21:48:00.475Z,17.55
2023-05-23T21:51:12.076Z,17.55
2023-05-23T21:54:19.409Z,17.55
2023-05-23T21:57:29.718Z,17.55
2023-05-23T22:01:05.467Z,17.55
2023-05-23T22:04:14.273Z,17.55
2023-05-23T22:07:22.058Z,17.54
2023-05-23T22:10:30.307Z,17.55
2023-05-23T22:13:37.283Z,17.54
2023-05-23T22:16:45.113Z,17.54
2023-05-23T22:20:13.778Z,17.49
2023-05-23T22:23:21.905Z,17.47
2023-05-23T22:26:31.934Z,17.45
2023-05-23T22:29:43.941Z,17.43
2023-05-23T22:32:52.087Z,17.42
2023-05-23T22:36:01.493Z,17.40
2023-05-23T22:39:08.937Z,17.41
2023-05-23T22:42:20.244Z,17.39
2023-05-23T22:45:27.136Z,17.37
2023-05-23T22:48:36.200Z,17.37
2023-05-23T22:51:44.772Z,17.35
2023-05-23T22:54:56.032Z,17.33
2023-05-23T22:58:06.356Z,17.30
2023-05-23T23:01:17.362Z,17.29
2023-05-23T23:04:26.430Z,17.27
2023-05-23T23:07:33.478Z,17.26
2023-05-23T23:11:23.005Z,17.24
2023-05-23T23:14:30.671Z,17.23
2023-05-23T23:17:48.693Z,17.21
2023-05-23T23:21:03.852Z,17.18
2023-05-23T23:24:12.020Z,17.15
2023-05-23T23:27:39.152Z,17.13
2023-05-23T23:30:45.892Z,17.13
2023-05-23T23:33:53.269Z,17.11
2023-05-23T23:37:00.523Z,17.10
2023-05-23T23:40:07.670Z,17.07
2023-05-23T23:43:23.215Z,17.02
2023-05-23T23:46:32.823Z,16.99
2023-05-23T23:49:41.117Z,16.95
2023-05-23T23:52:49.298Z,16.90
2023-05-23T23:55:56.188Z,16.85
2023-05-23T23:59:04.556Z,16.79
